Hauptseite
METAR-TAF:

METAR-TAF

Flughäfen :

Heeresflugplatz Altenstadt

Altenstadt, Deutschland

Breite: 47-50N, Länge: 010-52E, Höhe: 739 m

Beobachtung

Neuester Wetterbericht von vor 39 Minuten, um 15:20 UTC
Wind 8 kt aus Ost
Temperatur 17°C
Luftfeuchtigkeit 55%
Luftdruck 1018 hPa
Sichtweite 10 km oder mehr
Leicht bewölkt in der Höhe von 15000 ft

METAR: ETHA 171520Z 08008KT 9999 FEW150 17/08 Q1018 BLU+BLU+

Zeit: 17:59 (15:59 UTC)

Prognose

Neuester Wetterbericht von vor 2 Stunden und 39 Minuten, um 13:20 UTC
Gültige Prognose vom 17 um 14 UTC bis 17 um 23 UTC
Wind 7 kt aus Nordost
Sichtweite 10 km oder mehr
Himmel klar

TAF: ETHA 171320Z 1714/1723 05007KT 9999 NSW SKC

Wetterbeobachtungen und Prognosen von mehr als 4000 Flughäfen (METAR und TAF Bericht).

Die verfügbaren Stationen werden durch gelbe und rote Markierungen auf der Karte dargestellt.

Führen Sie die Maus auf sie, um den Namen der Station zu sehen.

Darauf klicken, um die Beobachtung von Wetterbeobachtungen und Prognosen zu sehen.

Um die Karte zu ändern : klicken Sie auf den grünen Tasten mit einem schwarzen Kreuz Zum Vergrößern, auf den grünen Button mit einem Gedankenstrich zu verkleinern, oder auf die grünen Pfeile für benachbarte Karten.


METAR-TAF: